Time;durP1;ratioP1;P1;durP2;ratioP2;P2;SDS_P1;SDS_P2;PMS_P1;PMS_P2;Temp;Humidity;BMP_temperature;BMP_pressure;BME280_temperature;BME280_humidity;BME280_pressure;Samples;Min_cycle;Max_cycle;Signal;HPM_P1;HPM_P2
2021/11/28 00:02:21;;;;;;;0.00;0.00;;;;;;;3.67;65.51;100861.16;7360058;19;20010;-59
2021/11/28 00:04:52;;;;;;;0.10;0.10;;;;;;;3.68;65.54;100860.28;7363090;19;20027;-59
2021/11/28 00:15:12;;;;;;;0.00;0.00;;;;;;;3.65;65.31;100865.44;7369801;19;20049;-58
2021/11/28 00:17:38;;;;;;;0.00;0.00;;;;;;;3.62;65.72;100868.00;7368868;19;20003;-58
2021/11/28 00:20:06;;;;;;;0.00;0.00;;;;;;;3.61;65.88;100868.84;7370902;19;20029;-57
2021/11/28 00:22:32;;;;;;;0.00;0.00;;;;;;;3.51;65.54;100843.81;7369017;19;20391;-58
2021/11/28 00:24:57;;;;;;;0.00;0.00;;;;;;;3.60;65.60;100854.22;7370734;19;21127;-58
2021/11/28 00:27:23;;;;;;;0.00;0.00;;;;;;;3.58;65.79;100845.56;7371822;19;20014;-59
2021/11/28 00:29:48;;;;;;;0.10;0.10;;;;;;;3.61;65.43;100850.78;7364241;19;20038;-59
2021/11/28 00:32:14;;;;;;;0.10;0.10;;;;;;;3.60;65.48;100849.91;7364938;19;20019;-59
2021/11/28 00:34:39;;;;;;;0.10;0.10;;;;;;;3.60;65.28;100854.22;7367676;19;20010;-58
2021/11/28 00:37:05;;;;;;;0.00;0.00;;;;;;;3.47;65.55;100839.47;7368264;19;20014;-59
2021/11/28 00:39:30;;;;;;;0.00;0.00;;;;;;;3.58;65.70;100853.31;7368728;19;20772;-59
2021/11/28 00:41:56;;;;;;;0.10;0.10;;;;;;;3.59;65.94;100857.63;7364730;19;20029;-58
2021/11/28 00:44:21;;;;;;;0.00;0.00;;;;;;;3.61;65.95;100855.94;7362196;19;20018;-57
2021/11/28 00:46:47;;;;;;;0.00;0.00;;;;;;;3.65;65.70;100860.28;7364869;19;20014;-59
2021/11/28 00:49:16;;;;;;;0.00;0.00;;;;;;;3.69;65.56;100863.72;7359975;19;22240;-59
2021/11/28 00:51:56;;;;;;;0.00;0.00;;;;;;;3.72;65.92;100851.72;7358989;19;20018;-58
2021/11/28 00:54:22;;;;;;;0.00;0.00;;;;;;;3.74;65.62;100851.72;7356715;19;20018;-59
2021/11/28 00:56:47;;;;;;;0.10;0.10;;;;;;;3.74;65.78;100841.38;7364388;19;20110;-56
2021/11/28 00:59:13;;;;;;;0.00;0.00;;;;;;;3.76;65.71;100845.72;7360865;19;20002;-59
2021/11/28 01:01:39;;;;;;;0.00;0.00;;;;;;;3.78;65.92;100848.31;7367270;19;20026;-58
2021/11/28 01:04:05;;;;;;;0.00;0.00;;;;;;;3.79;65.62;100844.88;7358490;19;20460;-58
2021/11/28 01:06:30;;;;;;;0.00;0.00;;;;;;;3.77;65.56;100841.44;7359224;19;20018;-59
2021/11/28 01:08:56;;;;;;;0.00;0.00;;;;;;;3.82;65.92;100838.00;7366670;19;20020;-59
2021/11/28 01:11:23;;;;;;;0.10;0.10;;;;;;;3.82;65.94;100830.25;7364277;19;20604;-57
2021/11/28 01:13:53;;;;;;;0.00;0.00;;;;;;;3.84;65.68;100823.38;7364622;19;20039;-59
2021/11/28 01:16:19;;;;;;;0.00;0.00;;;;;;;3.88;65.58;100817.38;7364642;19;20007;-59
2021/11/28 01:18:46;;;;;;;0.00;0.00;;;;;;;3.89;65.94;100805.34;7368188;19;20025;-58
2021/11/28 01:21:12;;;;;;;0.10;0.10;;;;;;;3.90;65.50;100805.38;7354154;19;20872;-58
2021/11/28 01:23:37;;;;;;;0.10;0.10;;;;;;;3.91;65.82;100808.81;7362017;19;21401;-59
2021/11/28 01:26:03;;;;;;;0.00;0.00;;;;;;;3.92;65.39;100809.66;7366942;19;20022;-59
2021/11/28 01:28:28;;;;;;;0.10;0.10;;;;;;;3.93;65.80;100806.22;7361129;19;20057;-59
2021/11/28 01:30:54;;;;;;;0.10;0.10;;;;;;;3.92;65.46;100799.34;7366540;19;20025;-59
2021/11/28 01:33:20;;;;;;;0.08;0.08;;;;;;;3.93;65.65;100801.06;7365520;19;20007;-59
2021/11/28 01:35:45;;;;;;;0.05;0.05;;;;;;;3.91;65.72;100785.56;7370890;19;20019;-59
2021/11/28 01:38:11;;;;;;;0.10;0.10;;;;;;;3.91;65.49;100788.13;7362429;19;20391;-59
2021/11/28 01:40:37;;;;;;;0.00;0.00;;;;;;;3.86;65.38;100788.09;7367987;19;20019;-58
2021/11/28 01:43:12;;;;;;;0.10;0.10;;;;;;;3.94;65.30;100797.63;7368873;19;20018;-59
2021/11/28 01:45:39;;;;;;;0.03;0.03;;;;;;;3.90;65.60;100797.63;7366618;19;20010;-59
2021/11/28 01:48:08;;;;;;;0.00;0.00;;;;;;;3.90;65.46;100792.44;7369026;19;20014;-59
2021/11/28 01:50:36;;;;;;;0.00;0.00;;;;;;;3.88;65.21;100791.56;7360988;19;20021;-58
2021/11/28 01:53:03;;;;;;;0.10;0.10;;;;;;;3.88;65.60;100788.97;7363293;19;20469;-59
2021/11/28 01:55:32;;;;;;;0.10;0.10;;;;;;;3.87;65.67;100791.56;7362028;19;20023;-58
2021/11/28 01:57:59;;;;;;;0.10;0.10;;;;;;;3.86;65.73;100785.53;7369087;19;20783;-59
2021/11/28 02:00:28;;;;;;;0.00;0.00;;;;;;;3.87;65.78;100782.09;7362729;19;20850;-59
2021/11/28 02:02:54;;;;;;;0.00;0.00;;;;;;;3.86;65.36;100782.94;7364193;19;20026;-58
2021/11/28 02:05:21;;;;;;;0.00;0.00;;;;;;;3.84;65.75;100763.09;7365484;19;20723;-59
2021/11/28 02:07:46;;;;;;;0.00;0.00;;;;;;;3.84;65.90;100761.38;7359332;19;20077;-58
2021/11/28 02:10:12;;;;;;;0.10;0.10;;;;;;;3.84;65.91;100776.03;7359620;19;20101;-58
2021/11/28 02:12:38;;;;;;;0.00;0.00;;;;;;;3.81;65.54;100766.56;7362618;19;20014;-59
2021/11/28 02:15:05;;;;;;;0.00;0.00;;;;;;;3.84;65.99;100769.13;7364929;19;20018;-59
2021/11/28 02:17:31;;;;;;;0.00;0.00;;;;;;;3.83;66.05;100770.00;7357774;19;20802;-59
2021/11/28 02:19:57;;;;;;;0.10;0.10;;;;;;;3.83;66.31;100761.38;7363903;19;20034;-59
2021/11/28 02:22:22;;;;;;;0.03;0.03;;;;;;;3.84;65.62;100761.38;7367866;19;20028;-59
2021/11/28 02:24:49;;;;;;;0.10;0.10;;;;;;;3.71;65.99;100726.03;7362578;19;21052;-59
2021/11/28 02:27:15;;;;;;;0.00;0.00;;;;;;;3.85;66.22;100752.81;7359563;19;20016;-58
2021/11/28 02:29:42;;;;;;;0.00;0.00;;;;;;;3.87;66.13;100753.66;7369199;19;20397;-59
2021/11/28 02:32:09;;;;;;;0.10;0.10;;;;;;;3.85;66.12;100750.22;7358397;19;20015;-59
2021/11/28 02:34:35;;;;;;;0.10;0.10;;;;;;;3.89;65.99;100758.84;7366274;19;20097;-58
2021/11/28 02:37:00;;;;;;;0.00;0.00;;;;;;;3.90;66.31;100750.22;7364111;19;20439;-59
2021/11/28 02:39:26;;;;;;;0.10;0.10;;;;;;;3.93;66.36;100751.97;7367509;19;20014;-58
2021/11/28 02:41:51;;;;;;;0.10;0.10;;;;;;;3.95;66.34;100753.69;7358903;19;20082;-59
2021/11/28 02:44:17;;;;;;;0.10;0.10;;;;;;;3.97;66.39;100746.84;7365591;19;20501;-56
2021/11/28 02:46:43;;;;;;;0.03;0.03;;;;;;;3.99;66.73;100755.44;7363987;19;20006;-59
2021/11/28 02:49:09;;;;;;;0.08;0.08;;;;;;;4.03;66.54;100751.16;7363844;19;20029;-58
2021/11/28 02:51:36;;;;;;;0.00;0.00;;;;;;;4.06;66.58;100748.59;7336573;19;20003;-58
2021/11/28 02:54:03;;;;;;;0.10;0.10;;;;;;;4.07;66.71;100748.59;7362671;19;20018;-57
2021/11/28 02:56:29;;;;;;;0.00;0.00;;;;;;;4.09;66.74;100751.19;7363129;19;20434;-59
2021/11/28 02:58:54;;;;;;;0.08;0.08;;;;;;;4.12;66.42;100756.38;7359411;19;20052;-60
2021/11/28 03:01:21;;;;;;;0.00;0.00;;;;;;;4.14;66.43;100755.50;7364139;19;20581;-59
2021/11/28 03:03:49;;;;;;;0.10;0.10;;;;;;;4.16;66.85;100758.13;7364223;19;20015;-59
2021/11/28 03:06:14;;;;;;;0.10;0.10;;;;;;;4.18;66.51;100761.56;7362586;19;20006;-57
2021/11/28 03:08:41;;;;;;;0.00;0.00;;;;;;;4.18;66.71;100751.22;7364597;19;20006;-59
2021/11/28 03:11:10;;;;;;;0.00;0.00;;;;;;;4.11;66.43;100739.16;7360522;19;20363;-57
2021/11/28 03:13:42;;;;;;;0.10;0.10;;;;;;;4.26;66.15;100753.81;7360436;19;20026;-59
2021/11/28 03:16:19;;;;;;;0.00;0.00;;;;;;;4.28;66.39;100745.25;7360359;19;20067;-59
2021/11/28 03:18:45;;;;;;;0.00;0.00;;;;;;;4.27;66.78;100738.34;7356441;19;20006;-58
2021/11/28 03:21:13;;;;;;;0.00;0.00;;;;;;;4.30;66.73;100729.72;7361406;19;20359;-60
2021/11/28 03:23:41;;;;;;;0.03;0.03;;;;;;;4.15;66.53;100707.28;7360922;19;20014;-58
2021/11/28 03:26:08;;;;;;;0.10;0.10;;;;;;;4.31;66.55;100722.00;7362410;19;20062;-58
2021/11/28 03:28:35;;;;;;;0.10;0.10;;;;;;;4.35;66.63;100718.53;7362033;19;20090;-57
2021/11/28 03:31:01;;;;;;;0.00;0.00;;;;;;;4.35;66.24;100703.03;7362087;19;20014;-58
2021/11/28 03:33:26;;;;;;;0.00;0.00;;;;;;;4.33;66.17;100709.94;7360176;19;20015;-59
2021/11/28 03:35:52;;;;;;;0.00;0.00;;;;;;;4.37;66.66;100711.66;7356158;19;20604;-59
2021/11/28 03:38:17;;;;;;;0.10;0.10;;;;;;;4.37;66.39;100711.66;7358508;19;20006;-59
2021/11/28 03:40:43;;;;;;;0.00;0.00;;;;;;;4.38;66.80;100704.78;7363486;19;21846;-57
2021/11/28 03:43:09;;;;;;;0.05;0.05;;;;;;;4.37;66.31;100703.91;7363747;19;20014;-59
2021/11/28 03:45:35;;;;;;;0.00;0.00;;;;;;;4.39;66.43;100706.50;7366687;19;20027;-56
2021/11/28 03:48:01;;;;;;;0.00;0.00;;;;;;;4.39;66.43;100709.94;7369639;19;20033;-57
2021/11/28 03:50:27;;;;;;;0.00;0.00;;;;;;;4.39;66.56;100698.72;7365771;19;20010;-59
2021/11/28 03:52:52;;;;;;;0.00;0.00;;;;;;;4.39;66.84;100694.41;7369250;19;20015;-60
2021/11/28 03:55:20;;;;;;;0.00;0.00;;;;;;;4.40;66.41;100684.94;7360875;19;20428;-59
2021/11/28 03:57:46;;;;;;;0.00;0.00;;;;;;;4.39;66.59;100681.50;7367201;19;20006;-58
2021/11/28 04:00:13;;;;;;;0.00;0.00;;;;;;;4.40;66.55;100680.63;7367846;19;20010;-59
2021/11/28 04:02:40;;;;;;;0.08;0.08;;;;;;;4.40;66.34;100685.81;7370169;19;20015;-58
2021/11/28 04:05:07;;;;;;;0.00;0.00;;;;;;;4.39;66.54;100680.63;7362044;19;20011;-57
2021/11/28 04:07:32;;;;;;;0.10;0.10;;;;;;;4.32;66.92;100672.00;7365851;19;20181;-60
2021/11/28 04:09:58;;;;;;;0.00;0.00;;;;;;;4.38;66.70;100673.75;7365873;19;20116;-59
2021/11/28 04:12:24;;;;;;;0.05;0.05;;;;;;;4.38;66.71;100677.19;7367430;19;20744;-59
2021/11/28 04:14:50;;;;;;;0.00;0.00;;;;;;;4.36;67.04;100673.75;7367199;19;20025;-59
2021/11/28 04:17:15;;;;;;;0.00;0.00;;;;;;;4.39;66.45;100654.78;7360710;19;20759;-59
2021/11/28 04:19:41;;;;;;;0.05;0.05;;;;;;;4.25;66.89;100634.06;7364913;19;20006;-59
2021/11/28 04:22:06;;;;;;;0.08;0.08;;;;;;;4.38;66.53;100646.16;7367419;19;20011;-58
2021/11/28 04:24:32;;;;;;;0.00;0.00;;;;;;;4.36;66.88;100642.72;7370087;19;20033;-57
2021/11/28 04:26:58;;;;;;;0.10;0.10;;;;;;;4.39;66.36;100647.88;7364123;19;20014;-58
2021/11/28 04:29:24;;;;;;;0.00;0.00;;;;;;;4.38;67.07;100645.31;7363477;19;21172;-59
2021/11/28 04:31:49;;;;;;;0.10;0.10;;;;;;;4.36;66.58;100637.56;7368219;19;20050;-58
2021/11/28 04:34:16;;;;;;;0.10;0.10;;;;;;;4.37;66.81;100638.41;7367254;19;20073;-57
2021/11/28 04:36:42;;;;;;;0.10;0.10;;;;;;;4.36;66.97;100634.97;7367105;19;20078;-58
2021/11/28 04:39:08;;;;;;;0.00;0.00;;;;;;;4.33;66.67;100631.50;7369798;19;20115;-59
2021/11/28 04:41:33;;;;;;;0.10;0.10;;;;;;;4.36;67.45;100636.69;7368845;19;20078;-59
2021/11/28 04:43:59;;;;;;;0.10;0.10;;;;;;;4.23;67.00;100619.44;7364260;19;20006;-59
2021/11/28 04:46:24;;;;;;;0.00;0.00;;;;;;;4.37;66.54;100628.94;7367938;19;20006;-57
2021/11/28 04:48:50;;;;;;;0.00;0.00;;;;;;;4.38;67.28;100622.03;7369038;19;20006;-58
2021/11/28 04:51:16;;;;;;;0.00;0.00;;;;;;;4.39;66.89;100610.84;7365574;19;20010;-59
2021/11/28 04:53:41;;;;;;;0.00;0.00;;;;;;;4.21;66.97;100570.34;7368166;19;20287;-59
2021/11/28 04:56:07;;;;;;;0.00;0.00;;;;;;;4.39;67.10;100595.31;7367429;19;20007;-58
2021/11/28 04:58:32;;;;;;;0.10;0.10;;;;;;;4.41;66.85;100610.00;7370382;19;20029;-59
2021/11/28 05:00:58;;;;;;;0.10;0.10;;;;;;;4.42;67.33;100614.28;7363729;19;20012;-59
2021/11/28 05:03:23;;;;;;;0.03;0.03;;;;;;;4.43;67.29;100605.66;7366106;19;20027;-59
2021/11/28 05:05:49;;;;;;;0.10;0.10;;;;;;;4.45;67.11;100599.63;7362935;19;20077;-59
2021/11/28 05:08:14;;;;;;;0.00;0.00;;;;;;;4.45;67.39;100592.72;7367965;19;20028;-59
2021/11/28 05:10:40;;;;;;;0.00;0.00;;;;;;;4.34;67.33;100579.81;7369551;19;20006;-59
2021/11/28 05:13:05;;;;;;;0.00;0.00;;;;;;;4.47;67.16;100592.75;7365434;19;20003;-58
2021/11/28 05:15:31;;;;;;;0.00;0.00;;;;;;;4.49;67.20;100580.69;7365904;19;20058;-58
2021/11/28 05:17:56;;;;;;;0.00;0.00;;;;;;;4.49;67.27;100573.78;7367672;19;20006;-59
2021/11/28 05:20:22;;;;;;;0.00;0.00;;;;;;;4.46;67.43;100562.56;7367665;19;20367;-59
2021/11/28 05:22:47;;;;;;;0.03;0.03;;;;;;;4.49;67.65;100560.00;7362126;19;20498;-59
2021/11/28 05:25:14;;;;;;;0.03;0.03;;;;;;;4.54;67.66;100563.44;7366402;19;20020;-56
2021/11/28 05:27:42;;;;;;;0.00;0.00;;;;;;;4.54;67.57;100561.72;7359591;19;20025;-59
2021/11/28 05:30:08;;;;;;;0.10;0.10;;;;;;;4.56;67.81;100559.13;7367900;19;20018;-57
2021/11/28 05:32:34;;;;;;;0.00;0.00;;;;;;;4.57;67.62;100558.28;7365165;19;20013;-58
2021/11/28 05:34:59;;;;;;;0.10;0.10;;;;;;;4.60;67.99;100568.59;7366786;19;20462;-57
2021/11/28 05:37:25;;;;;;;0.00;0.00;;;;;;;4.62;67.79;100564.31;7366900;19;20015;-60
2021/11/28 05:39:50;;;;;;;0.10;0.10;;;;;;;4.64;68.35;100570.31;7363530;19;20030;-58
2021/11/28 05:42:16;;;;;;;0.10;0.10;;;;;;;4.66;67.92;100564.31;7365611;19;20006;-59
2021/11/28 05:44:41;;;;;;;0.00;0.00;;;;;;;4.67;67.72;100562.59;7364887;19;20627;-59
2021/11/28 05:47:07;;;;;;;0.00;0.00;;;;;;;4.70;67.87;100554.81;7363094;19;20010;-58
2021/11/28 05:49:32;;;;;;;0.10;0.10;;;;;;;4.73;67.98;100549.63;7364843;19;20027;-59
2021/11/28 05:51:58;;;;;;;0.00;0.00;;;;;;;4.76;67.59;100544.44;7363848;19;20660;-58
2021/11/28 05:54:23;;;;;;;0.00;0.00;;;;;;;4.67;68.25;100521.19;7366194;19;20011;-59
2021/11/28 05:56:49;;;;;;;0.10;0.10;;;;;;;4.80;67.99;100530.63;7364361;19;20011;-59
2021/11/28 05:59:15;;;;;;;0.10;0.10;;;;;;;4.82;67.93;100541.88;7366472;19;20014;-58
2021/11/28 06:01:40;;;;;;;0.10;0.10;;;;;;;4.73;68.06;100528.94;7360877;19;20014;-60
2021/11/28 06:04:06;;;;;;;0.10;0.10;;;;;;;4.86;67.98;100561.66;7367031;19;20026;-58
2021/11/28 06:06:31;;;;;;;0.00;0.00;;;;;;;4.88;68.02;100554.78;7366599;19;20082;-59
2021/11/28 06:08:57;;;;;;;0.00;0.00;;;;;;;4.90;67.70;100542.69;7362363;19;20035;-58
2021/11/28 06:11:22;;;;;;;0.10;0.10;;;;;;;4.92;67.87;100540.13;7362768;19;20015;-58
2021/11/28 06:13:48;;;;;;;0.10;0.10;;;;;;;4.92;67.94;100553.91;7365525;19;20010;-59
2021/11/28 06:16:13;;;;;;;0.10;0.10;;;;;;;4.95;67.72;100564.25;7365222;19;20023;-58
2021/11/28 06:18:39;;;;;;;0.10;0.10;;;;;;;4.97;68.18;100571.13;7364377;19;20090;-58
2021/11/28 06:21:04;;;;;;;0.10;0.10;;;;;;;4.98;67.99;100580.66;7363292;19;20017;-58
2021/11/28 06:23:30;;;;;;;0.00;0.00;;;;;;;5.00;68.15;100578.91;7366798;19;20484;-58
2021/11/28 06:25:55;;;;;;;0.10;0.10;;;;;;;5.00;68.00;100571.16;7366086;19;20569;-58
2021/11/28 06:28:21;;;;;;;0.10;0.10;;;;;;;5.04;67.74;100570.28;7359325;19;20387;-59
2021/11/28 06:30:46;;;;;;;0.10;0.10;;;;;;;5.01;68.20;100550.44;7363734;19;20014;-58
2021/11/28 06:33:12;;;;;;;0.00;0.00;;;;;;;5.06;68.01;100555.59;7365503;19;20018;-58
2021/11/28 06:35:37;;;;;;;0.00;0.00;;;;;;;5.06;67.91;100548.69;7354631;19;20011;-57
2021/11/28 06:38:03;;;;;;;0.03;0.03;;;;;;;5.04;68.19;100534.03;7367918;19;20010;-58
2021/11/28 06:40:28;;;;;;;0.10;0.10;;;;;;;5.08;67.59;100552.16;7365211;19;20078;-59
2021/11/28 06:42:54;;;;;;;0.10;0.10;;;;;;;5.08;67.93;100561.66;7359471;19;20753;-57
2021/11/28 06:45:19;;;;;;;0.00;0.00;;;;;;;5.10;67.58;100544.38;7365643;19;20023;-59
2021/11/28 06:47:46;;;;;;;0.00;0.00;;;;;;;5.11;67.62;100541.78;7358462;19;20029;-59
2021/11/28 06:50:12;;;;;;;0.10;0.10;;;;;;;4.98;67.60;100513.38;7366930;19;20458;-59
2021/11/28 06:52:38;;;;;;;0.00;0.00;;;;;;;5.12;67.45;100537.44;7362016;19;20011;-59
2021/11/28 06:55:04;;;;;;;0.10;0.10;;;;;;;5.12;67.63;100537.44;7364704;19;20006;-59
2021/11/28 06:57:29;;;;;;;0.00;0.00;;;;;;;5.12;67.55;100533.16;7364677;19;20007;-57
2021/11/28 06:59:55;;;;;;;0.00;0.00;;;;;;;5.13;67.61;100541.78;7362477;19;20011;-59
2021/11/28 07:02:20;;;;;;;0.10;0.10;;;;;;;5.01;67.46;100524.53;7361582;19;20011;-59
2021/11/28 07:04:46;;;;;;;0.10;0.10;;;;;;;5.06;67.89;100542.66;7363836;19;20094;-59
2021/11/28 07:07:11;;;;;;;0.00;0.00;;;;;;;5.13;67.55;100546.97;7364153;19;20011;-58
2021/11/28 07:09:37;;;;;;;0.10;0.10;;;;;;;5.15;67.93;100547.81;7359648;19;20610;-59
2021/11/28 07:12:04;;;;;;;0.00;0.00;;;;;;;5.09;67.48;100521.97;7364738;19;20966;-60
2021/11/28 07:14:29;;;;;;;0.00;0.00;;;;;;;5.16;67.54;100541.75;7361486;19;20034;-59
2021/11/28 07:16:54;;;;;;;0.10;0.10;;;;;;;5.16;67.88;100549.53;7364689;19;20010;-58
2021/11/28 07:19:20;;;;;;;0.00;0.00;;;;;;;5.17;67.95;100535.72;7360864;19;20395;-59
2021/11/28 07:21:45;;;;;;;0.00;0.00;;;;;;;5.16;67.81;100519.31;7370866;19;20017;-58
2021/11/28 07:24:11;;;;;;;0.10;0.10;;;;;;;5.17;67.44;100512.41;7366829;19;20002;-57
2021/11/28 07:26:36;;;;;;;0.00;0.00;;;;;;;5.17;67.55;100499.47;7369610;19;20029;-59
2021/11/28 07:29:02;;;;;;;0.10;0.10;;;;;;;5.18;67.70;100496.91;7364409;19;21752;-59
2021/11/28 07:31:27;;;;;;;0.00;0.00;;;;;;;5.19;67.46;100492.59;7370863;19;20015;-60
2021/11/28 07:33:53;;;;;;;0.00;0.00;;;;;;;5.18;67.67;100489.13;7368949;19;21932;-59
2021/11/28 07:36:19;;;;;;;0.00;0.00;;;;;;;5.19;67.64;100482.22;7369488;19;20025;-58
2021/11/28 07:38:44;;;;;;;0.10;0.10;;;;;;;5.20;67.46;100483.94;7369085;19;20565;-59
2021/11/28 07:41:11;;;;;;;0.10;0.10;;;;;;;5.18;66.81;100476.19;7367135;19;20015;-59
2021/11/28 07:43:37;;;;;;;0.10;0.10;;;;;;;5.17;67.63;100484.84;7366929;19;20045;-59
2021/11/28 07:46:03;;;;;;;0.10;0.10;;;;;;;5.16;67.76;100493.44;7368844;19;20002;-59
2021/11/28 07:48:29;;;;;;;0.10;0.10;;;;;;;5.04;67.98;100472.78;7370302;19;20610;-57
2021/11/28 07:50:54;;;;;;;0.00;0.00;;;;;;;5.14;67.72;100489.16;7364263;19;20014;-59
2021/11/28 07:53:20;;;;;;;0.10;0.10;;;;;;;5.12;68.00;100496.03;7365963;19;20038;-58
2021/11/28 07:55:45;;;;;;;0.00;0.00;;;;;;;5.13;67.78;100497.78;7368566;19;20014;-60
2021/11/28 07:58:11;;;;;;;0.00;0.00;;;;;;;5.13;67.93;100502.97;7364585;19;20002;-58
2021/11/28 08:00:36;;;;;;;0.00;0.00;;;;;;;5.13;67.63;100508.16;7369225;19;20011;-59
2021/11/28 08:03:02;;;;;;;0.00;0.00;;;;;;;5.13;67.89;100513.31;7370741;19;20009;-59
2021/11/28 08:05:30;;;;;;;0.00;0.00;;;;;;;5.12;67.65;100486.56;7367519;19;20038;-59
2021/11/28 08:07:55;;;;;;;0.10;0.10;;;;;;;5.14;67.20;100489.16;7366031;19;20015;-58
2021/11/28 08:10:21;;;;;;;0.00;0.00;;;;;;;5.08;67.54;100484.88;7364470;19;20814;-58
2021/11/28 08:12:47;;;;;;;0.10;0.10;;;;;;;5.12;67.55;100483.09;7363483;19;20066;-62
2021/11/28 08:15:19;;;;;;;0.10;0.10;;;;;;;5.12;67.90;100478.81;7363113;19;20040;-58
2021/11/28 08:17:48;;;;;;;0.00;0.00;;;;;;;5.13;67.56;100484.84;7364126;19;20782;-58
2021/11/28 08:20:16;;;;;;;0.00;0.00;;;;;;;5.09;67.41;100483.13;7360999;19;20023;-59
2021/11/28 08:22:42;;;;;;;0.00;0.00;;;;;;;5.09;67.12;100491.75;7367299;19;20351;-59
2021/11/28 08:25:11;;;;;;;0.03;0.03;;;;;;;5.09;67.45;100483.13;7363802;19;20070;-58
2021/11/28 08:27:36;;;;;;;0.00;0.00;;;;;;;5.09;67.71;100485.72;7362049;19;20022;-59
2021/11/28 08:30:11;;;;;;;0.00;0.00;;;;;;;5.08;67.56;100478.84;7362115;19;20057;-58
2021/11/28 08:32:39;;;;;;;0.10;0.10;;;;;;;5.08;67.60;100489.19;7357271;19;20029;-59
2021/11/28 08:35:05;;;;;;;0.10;0.10;;;;;;;5.09;67.84;100483.13;7365959;19;20048;-57
2021/11/28 08:37:31;;;;;;;0.00;0.00;;;;;;;5.09;67.59;100491.75;7369450;19;20018;-59
2021/11/28 08:39:56;;;;;;;0.03;0.03;;;;;;;5.09;67.86;100491.75;7364890;19;20014;-58
2021/11/28 08:42:23;;;;;;;0.00;0.00;;;;;;;5.10;67.56;100483.13;7359023;19;20018;-59
2021/11/28 08:44:49;;;;;;;0.00;0.00;;;;;;;5.10;67.37;100471.91;7363343;19;20591;-59
2021/11/28 08:47:14;;;;;;;0.10;0.10;;;;;;;5.11;68.07;100479.66;7364434;19;20074;-58
2021/11/28 08:49:40;;;;;;;0.10;0.10;;;;;;;5.02;68.01;100463.31;7367835;19;20010;-59
2021/11/28 08:52:05;;;;;;;0.10;0.10;;;;;;;5.11;67.95;100473.63;7349125;19;20015;-59
2021/11/28 08:54:31;;;;;;;0.05;0.05;;;;;;;5.11;68.01;100468.44;7362251;19;20006;-58
2021/11/28 08:56:58;;;;;;;0.10;0.10;;;;;;;5.12;67.21;100464.97;7357763;19;20018;-58
2021/11/28 08:59:25;;;;;;;0.10;0.10;;;;;;;5.03;67.72;100452.09;7368833;19;20021;-59
2021/11/28 09:01:52;;;;;;;0.00;0.00;;;;;;;5.05;67.82;100458.13;7364122;19;20002;-59
2021/11/28 09:04:17;;;;;;;0.10;0.10;;;;;;;5.07;68.23;100458.97;7360906;19;20015;-59
2021/11/28 09:06:43;;;;;;;0.00;0.00;;;;;;;5.07;67.69;100466.72;7364527;19;20015;-58
2021/11/28 09:09:08;;;;;;;0.10;0.10;;;;;;;5.07;68.14;100462.44;7357345;19;20014;-58
2021/11/28 09:11:34;;;;;;;0.10;0.10;;;;;;;4.98;68.03;100451.25;7356078;19;20047;-59
2021/11/28 09:13:59;;;;;;;0.00;0.00;;;;;;;5.06;67.83;100470.19;7357373;19;20015;-59
2021/11/28 09:16:25;;;;;;;0.10;0.10;;;;;;;5.05;68.18;100468.47;7367390;19;20014;-58
2021/11/28 09:18:55;;;;;;;0.00;0.00;;;;;;;5.06;68.10;100459.84;7361096;19;20013;-59
2021/11/28 09:21:21;;;;;;;0.00;0.00;;;;;;;5.07;68.41;100466.72;7364947;19;20024;-58
2021/11/28 09:26:31;;;;;;;0.10;0.10;;;;;;;5.08;67.91;100448.63;7362971;19;21113;-58
2021/11/28 09:29:01;;;;;;;0.10;0.10;;;;;;;5.10;68.26;100443.44;7365663;19;21195;-58
2021/11/28 09:31:29;;;;;;;0.00;0.00;;;;;;;5.10;68.29;100446.03;7363854;19;20023;-59
2021/11/28 09:33:55;;;;;;;0.00;0.00;;;;;;;5.11;67.83;100427.03;7365619;19;22193;-59
2021/11/28 09:36:20;;;;;;;0.00;0.00;;;;;;;5.11;68.33;100432.22;7362534;19;20086;-59
2021/11/28 09:38:46;;;;;;;0.08;0.08;;;;;;;5.12;67.90;100434.81;7361107;19;20006;-58
2021/11/28 09:41:12;;;;;;;0.00;0.00;;;;;;;5.14;67.71;100433.06;7361514;19;20002;-59
2021/11/28 09:43:43;;;;;;;0.10;0.10;;;;;;;5.16;68.25;100425.28;7356984;19;20035;-58
2021/11/28 09:46:09;;;;;;;0.10;0.10;;;;;;;5.09;68.32;100416.69;7363965;19;20036;-57
2021/11/28 09:48:36;;;;;;;0.10;0.10;;;;;;;5.17;68.37;100432.16;7363111;19;20089;-59
2021/11/28 09:51:07;;;;;;;0.10;0.10;;;;;;;5.20;68.49;100429.59;7364637;19;20108;-56
2021/11/28 09:53:35;;;;;;;0.00;0.00;;;;;;;5.21;68.32;100428.72;7362520;19;20023;-59
2021/11/28 09:56:01;;;;;;;0.10;0.10;;;;;;;5.21;68.76;100419.22;7366185;19;20038;-59
2021/11/28 09:58:28;;;;;;;0.10;0.10;;;;;;;5.25;68.76;100416.63;7363392;19;20078;-59
2021/11/28 10:00:56;;;;;;;0.03;0.03;;;;;;;5.28;68.09;100408.84;7361547;19;20082;-60
2021/11/28 10:03:21;;;;;;;0.00;0.00;;;;;;;5.27;68.25;100410.59;7365504;19;20020;-59
2021/11/28 10:05:49;;;;;;;0.00;0.00;;;;;;;5.30;68.57;100407.09;7358738;19;20011;-60
2021/11/28 10:08:14;;;;;;;;;;;;;;;5.37;67.53;100399.31;7364645;19;20014;-59
2021/11/28 10:10:42;;;;;;;0.05;0.05;;;;;;;5.35;68.32;100402.75;7360012;19;20015;-59
2021/11/28 10:13:08;;;;;;;0.10;0.10;;;;;;;5.33;68.82;100399.31;7363872;19;20010;-59
2021/11/28 10:15:33;;;;;;;0.10;0.10;;;;;;;5.36;68.51;100396.69;7361745;19;20025;-59
2021/11/28 10:17:59;;;;;;;0.05;0.05;;;;;;;5.36;68.51;100405.31;7359947;19;20125;-59
2021/11/28 10:20:27;;;;;;;0.00;0.00;;;;;;;5.37;69.11;100420.00;7361136;19;20014;-59
2021/11/28 10:22:53;;;;;;;0.10;0.10;;;;;;;5.38;68.73;100401.00;7357864;19;20091;-56
2021/11/28 10:25:23;;;;;;;0.10;0.10;;;;;;;5.43;69.25;100409.59;7360904;19;20051;-59
2021/11/28 10:27:52;;;;;;;0.00;0.00;;;;;;;5.45;68.65;100407.84;7352316;19;20902;-59
2021/11/28 10:30:38;;;;;;;0.00;0.00;;;;;;;5.51;68.87;100411.28;7353619;19;20043;-58
2021/11/28 10:33:11;;;;;;;0.00;0.00;;;;;;;5.53;68.82;100404.38;7360273;19;20014;-57
2021/11/28 10:35:39;;;;;;;0.10;0.10;;;;;;;5.56;68.91;100409.50;7359265;19;20014;-58
2021/11/28 10:38:13;;;;;;;0.08;0.08;;;;;;;5.62;68.93;100404.28;7359014;19;20033;-58
2021/11/28 10:40:44;;;;;;;0.10;0.10;;;;;;;5.65;68.69;100399.09;7359574;19;20046;-58
2021/11/28 10:43:14;;;;;;;0.10;0.10;;;;;;;5.68;68.99;100399.09;7360065;19;20010;-58
2021/11/28 10:45:51;;;;;;;0.00;0.00;;;;;;;5.72;69.07;100395.56;7359164;19;20018;-59
2021/11/28 10:48:25;;;;;;;0.00;0.00;;;;;;;5.80;68.74;100382.56;7360013;19;20002;-59
2021/11/28 10:50:51;;;;;;;0.10;0.10;;;;;;;5.82;69.10;100376.50;7358197;19;20463;-58
2021/11/28 10:53:20;;;;;;;0.00;0.00;;;;;;;5.88;69.00;100393.72;7357928;19;20026;-54
2021/11/28 10:55:49;;;;;;;0.00;0.00;;;;;;;5.93;69.06;100390.28;7359794;19;20086;-58
2021/11/28 10:58:20;;;;;;;0.00;0.00;;;;;;;5.93;68.10;100379.91;7359765;19;20010;-58
2021/11/28 11:00:45;;;;;;;0.08;0.08;;;;;;;6.04;68.70;100389.31;7360117;19;20081;-59
2021/11/28 11:03:27;;;;;;;0.10;0.10;;;;;;;6.12;68.06;100388.34;7362000;19;20549;-59
2021/11/28 11:06:11;;;;;;;0.10;0.10;;;;;;;6.16;68.36;100386.59;7354899;19;20015;-60
2021/11/28 11:08:37;;;;;;;0.00;0.00;;;;;;;6.19;68.08;100389.16;7356870;19;20716;-59
2021/11/28 11:11:09;;;;;;;0.10;0.10;;;;;;;6.22;68.91;100381.34;7361647;19;20006;-58
2021/11/28 11:13:58;;;;;;;0.05;0.05;;;;;;;6.26;68.21;100387.38;7359793;19;20047;-59
2021/11/28 11:16:32;;;;;;;0.10;0.10;;;;;;;6.27;68.60;100384.75;7356743;19;20374;-58
2021/11/28 11:19:23;;;;;;;0.10;0.10;;;;;;;6.31;68.21;100381.25;7361665;19;20010;-58
2021/11/28 11:22:22;;;;;;;0.03;0.03;;;;;;;6.35;68.35;100382.94;7256657;19;2004388;-60
2021/11/28 11:24:58;;;;;;;0.05;0.05;;;;;;;6.37;68.41;100380.31;7258597;19;2004154;-60
2021/11/28 11:27:25;;;;;;;0.00;0.00;;;;;;;6.41;67.95;100382.00;7363666;19;20018;-58
2021/11/28 11:29:55;;;;;;;0.00;0.00;;;;;;;6.44;68.49;100387.19;7350736;19;20485;-58
2021/11/28 11:32:38;;;;;;;0.10;0.10;;;;;;;6.45;69.18;100389.75;7363894;19;20016;-60
2021/11/28 11:35:08;;;;;;;0.10;0.10;;;;;;;6.48;68.88;100392.28;7360669;19;20047;-59
2021/11/28 11:37:34;;;;;;;0.10;0.10;;;;;;;6.56;68.68;100397.41;7364323;19;20385;-57
2021/11/28 11:40:03;;;;;;;0.00;0.00;;;;;;;6.61;69.23;100395.63;7351820;19;20014;-59
2021/11/28 11:42:29;;;;;;;0.10;0.10;;;;;;;6.67;69.09;100405.06;7356190;19;20010;-59
2021/11/28 11:44:55;;;;;;;0.05;0.05;;;;;;;6.76;69.05;100413.63;7363653;19;20015;-59